Sunday, February 14, 2016
01:50 UTC
  |  Log In   |  Register Free
Airport Search:

Foothills Regional Airport
(KMRN)

Foothills Regional Airport Diagram
No Airport Diagram Available

FAA data valid effective Feb 4 2016 - Mar 31 2016 (unless otherwise noted).

 
 
 
 
 
 
 
 
 
 
 
 
 
 
Current Aviation Weather for KMRN

Weather Summary


The most recent METAR observation for MRN was updated at: 12:55 UTC
METAR for KMRN is not available. Closest METAR is for KHKY
KMRN  (most recent observation was updatred at 14:01 UTC)
140115Z AUTO 00000KT 10SM CLR M04/M17 A3042 RMK AO2 T10391175

KHKY  (11.8 nm NW)   (most recent observation was updated at 14:00 UTC)
140053Z AUTO 33007KT 10SM CLR M03/M18 A3037 RMK AO2 SLP286 T10331178 $

KFQD  (28.3 nm NE)   (most recent observation was updated at 14:01 UTC)
140135Z AUTO 00000KT 10SM CLR M03/M16 A3038 RMK AO2 T10321164

TAF for KMRN is not available.
KHKY  (11.8 nm NW)   (most recent observation was updatred at 13:23 UTC)
132331Z 1400/1424 33006KT P6SM FEW250 FM140700 03003KT P6SM SCT150 FM141000 06003KT P6SM BKN100 FM141800 12004KT P6SM OVC060


GlobalAir.com is loading additional information.
 Current Weather at MRN
28.0 F° (-2.1 C°)

Northwest winds at 6.9 mph
Pressure:
30.39 in
Humidity:
28%
Wind:
Northwest at 6.9 mph
Dew Point:
-1.1 F° (-18.4 C°)
Visibility:
10.00 mi
MRN NOAA Radar




Find All Airport Services Find A Hotel Find A Rental Car Find A Golf Course Find A Restaurant $100 Hamburger



Airport Weather Forecast for KMRN

Translated METAR for KMRN (0115 UTC)
METAR:
KMRN 140115Z AUTO 00000KT 10SM CLR M04/M17 A3042 RMK AO2 T10391175
Conditions at:
KMRN (Foothills Regional, NC) observed 0115 UTC 13 February 2016
Temperature:
-4°C (24.8°F)
Dewpoint:
-17°C (1.4°F) [RH = 35.7]
Pressure:
30.42 inches Hg (1030.1 mb)
Winds:
from the N (000 degrees) at 0 mph (0 knots: 0 m/s)
Visibility:
10 mile(s)
Ceiling:
at least 12,000 feet AGL
Clouds:
Clear below 12,000 feet AGL
Remarks:
site is un-manned
site is automated and HAS a precipitation sensor

Translated TAF for KHKY (Hickory Rgnl, NC) (2331 UTC)
TAF text:
KHKY 132331Z 1400/1424 33006KT P6SM FEW250
Forecast period:
Sunday Feb 14 2016 00:00 UTC - Sunday Feb 14 2016 24:00 UTC
Forecast type:
FROM: standard forecast or significant change
Winds:
from the NNW (330 degrees) at 6.9 mph (6 knots: 3.1 m/s)
Visibility:
6 or more mile(s) (9.7+ km)
Ceiling:
at least 12,000 feet AGL
Clouds:
Few Clouds at 25,000 feet AGL
Weather:
no significant weather observed at this time
TAF text:
FM140700 03003KT P6SM SCT150
Forecast period:
Sunday Feb 14 2016 07:00 UTC - Sunday Feb 14 2016 10:00 UTC
Forecast type:
FROM: standard forecast or significant change
Winds:
from the NNE (030 degrees) at 3.5 mph (3 knots: 1.5 m/s)
Visibility:
6 or more mile(s) (9.7+ km)
Ceiling:
at least 12,000 feet AGL
Clouds:
Scattered Clouds at 15,000 feet AGL
Weather:
no significant weather observed at this time
TAF text:
FM141000 06003KT P6SM BKN100
Forecast period:
Sunday Feb 14 2016 10:00 UTC - Sunday Feb 14 2016 18:00 UTC
Forecast type:
FROM: standard forecast or significant change
Winds:
from the ENE (060 degrees) at 3.5 mph (3 knots: 1.5 m/s)
Visibility:
6 or more mile(s) (9.7+ km)
Ceiling:
10,000 feet AGL
Clouds:
Broken Cloud Cover at 10,000 feet AGL
Weather:
no significant weather observed at this time
TAF text:
FM141800 12004KT P6SM OVC060
Forecast period:
Sunday Feb 14 2016 18:00 UTC - Sunday Feb 14 2016 24:00 UTC
Forecast type:
FROM: standard forecast or significant change
Winds:
from the ESE (120 degrees) at 4.6 mph (4 knots: 2.1 m/s)
Visibility:
6 or more mile(s) (9.7+ km)
Ceiling:
6,000 feet AGL
Clouds:
Overcast Skies at 6,000 feet AGL
Weather:
no significant weather observed at this time
FBO's on the Field
FBO Company Facility Photos Services Transportation Aviation Fuel Prices: Prices include tax
Catering Weather Repair Courtesy Rental Type 100LL JetA JetA+ MOGAS 8087
 
Foothills Aviation

This FBO has not yet been rated
FS:Shell
Last Updated: Feb-01
Login to update fuel prices
SS:
Contact Foothills AviationMore FBO Information
 
Add another FBO Facility Photos Catering Weather Repair Courtesy Rental Type 100LL JetA JetA+ MOGAS 8087
Services Transportation Aviation Fuel Prices: Prices include tax


model-print
model-print
model-print
model-print